Time;durP1;ratioP1;P1;durP2;ratioP2;P2;SDS_P1;SDS_P2;PMS_P1;PMS_P2;Temp;Humidity;BMP_temperature;BMP_pressure;BME280_temperature;BME280_humidity;BME280_pressure;Samples;Min_cycle;Max_cycle;Signal;HPM_P1;HPM_P2
2022/05/31 00:02:03;;;;;;;4.30;3.70;;;11.90;99.90;;;;;;5116481;28;20176;-59
2022/05/31 00:04:30;;;;;;;4.13;3.58;;;11.90;99.90;;;;;;5116178;28;20192;-59
2022/05/31 00:06:56;;;;;;;4.50;4.10;;;12.00;99.90;;;;;;5116145;28;20713;-59
2022/05/31 00:09:22;;;;;;;5.30;4.20;;;12.00;99.90;;;;;;5116464;28;20258;-59
2022/05/31 00:11:48;;;;;;;5.18;3.85;;;11.90;99.90;;;;;;5116095;28;20295;-59
2022/05/31 00:14:15;;;;;;;5.85;3.83;;;11.90;99.90;;;;;;5115984;28;20233;-59
2022/05/31 00:16:41;;;;;;;4.10;3.70;;;11.90;99.90;;;;;;5116252;28;20260;-59
2022/05/31 00:19:08;;;;;;;4.70;3.83;;;11.90;99.90;;;;;;5115789;28;20173;-60
2022/05/31 00:21:39;;;;;;;4.60;4.10;;;11.90;99.90;;;;;;5115963;28;20727;-60
2022/05/31 00:24:07;;;;;;;4.07;3.72;;;11.90;99.90;;;;;;5116109;28;20178;-60
2022/05/31 00:26:33;;;;;;;5.25;4.07;;;11.90;99.90;;;;;;5115805;28;20165;-60
2022/05/31 00:28:59;;;;;;;4.22;3.63;;;12.00;99.90;;;;;;5115786;28;20264;-60
2022/05/31 00:31:24;;;;;;;4.28;3.88;;;12.00;99.90;;;;;;5115725;28;20169;-60
2022/05/31 00:33:50;;;;;;;3.83;3.28;;;12.00;99.90;;;;;;5115626;28;20696;-60
2022/05/31 00:36:16;;;;;;;3.75;3.35;;;11.90;99.90;;;;;;5114460;28;20250;-60
2022/05/31 00:38:42;;;;;;;4.00;3.60;;;11.90;99.90;;;;;;5115945;28;20742;-60
2022/05/31 00:41:24;;;;;;;3.78;3.42;;;12.00;99.90;;;;;;5115613;28;20173;-60
2022/05/31 00:43:59;;;;;;;4.10;3.63;;;12.00;99.90;;;;;;5115542;28;20226;-59
2022/05/31 00:46:49;;;;;;;4.45;3.92;;;12.00;99.90;;;;;;5115295;28;20173;-60
2022/05/31 00:49:25;;;;;;;4.53;4.03;;;11.90;99.90;;;;;;5114648;28;20591;-60
2022/05/31 00:51:54;;;;;;;4.18;3.78;;;11.90;99.90;;;;;;5115377;28;20169;-60
2022/05/31 00:54:24;;;;;;;4.60;4.20;;;11.90;99.90;;;;;;5115091;28;20205;-60
2022/05/31 00:56:53;;;;;;;4.28;3.88;;;11.80;99.90;;;;;;5115122;28;20230;-60
2022/05/31 00:59:26;;;;;;;4.63;4.13;;;11.70;99.90;;;;;;5115576;28;20220;-59
2022/05/31 01:01:56;;;;;;;4.80;4.05;;;11.70;99.90;;;;;;5115353;28;20165;-60
2022/05/31 01:04:31;;;;;;;4.57;4.18;;;11.70;99.90;;;;;;5115166;28;20295;-60
2022/05/31 01:06:58;;;;;;;4.65;4.03;;;11.70;99.90;;;;;;5115089;28;20227;-60
2022/05/31 01:09:24;;;;;;;5.00;4.10;;;11.70;99.90;;;;;;5114861;28;20626;-60
2022/05/31 01:11:50;;;;;;;5.10;4.05;;;11.60;99.90;;;;;;5115098;28;20252;-60
2022/05/31 01:14:16;;;;;;;4.40;3.97;;;11.60;99.90;;;;;;5114809;28;20263;-60
2022/05/31 01:17:04;;;;;;;4.13;3.72;;;11.50;99.90;;;;;;5113459;28;20185;-60
2022/05/31 01:22:17;;;;;;;4.43;3.90;;;11.60;99.90;;;;;;5114925;28;20684;-60
2022/05/31 01:25:14;;;;;;;4.00;3.60;;;11.40;99.90;;;;;;5114713;28;20200;-59
2022/05/31 01:28:11;;;;;;;3.47;3.17;;;11.40;99.90;;;;;;5098059;28;20182;-60
2022/05/31 01:31:12;;;;;;;4.50;4.10;;;11.40;99.90;;;;;;5113771;28;20665;-60
2022/05/31 01:33:46;;;;;;;4.80;3.97;;;11.40;99.90;;;;;;5100775;28;20283;-60
2022/05/31 01:36:18;;;;;;;4.43;3.75;;;11.40;99.90;;;;;;5114589;28;20186;-60
2022/05/31 01:39:06;;;;;;;5.78;4.05;;;11.40;99.90;;;;;;5114604;28;20200;-59
2022/05/31 01:41:43;;;;;;;4.35;3.70;;;11.40;99.90;;;;;;5114442;28;20169;-59
2022/05/31 01:44:13;;;;;;;3.97;3.60;;;11.30;99.90;;;;;;5113110;28;20176;-62
2022/05/31 01:46:39;;;;;;;4.20;3.80;;;11.30;99.90;;;;;;5112945;28;20181;-60
2022/05/31 01:49:09;;;;;;;3.95;3.63;;;11.30;99.90;;;;;;5114312;28;20181;-59
2022/05/31 01:51:37;;;;;;;5.18;3.65;;;11.40;99.90;;;;;;5113184;28;20175;-59
2022/05/31 01:54:03;;;;;;;5.10;3.78;;;11.40;99.90;;;;;;5114177;28;20671;-59
2022/05/31 01:56:30;;;;;;;4.10;3.58;;;11.40;99.90;;;;;;5113234;28;20181;-59
2022/05/31 01:58:57;;;;;;;4.70;4.20;;;11.40;99.90;;;;;;5113905;28;20636;-60
2022/05/31 02:01:24;;;;;;;4.30;3.90;;;11.40;99.90;;;;;;5112317;28;20673;-60
2022/05/31 02:03:49;;;;;;;4.05;3.63;;;11.50;99.90;;;;;;5114082;28;20311;-60
2022/05/31 02:06:30;;;;;;;4.07;3.67;;;11.60;99.90;;;;;;5113846;28;20634;-60
2022/05/31 02:08:56;;;;;;;4.50;3.63;;;11.60;99.90;;;;;;5112770;28;20189;-59
2022/05/31 02:11:23;;;;;;;3.65;3.28;;;11.60;99.90;;;;;;5112538;28;20177;-60
2022/05/31 02:13:49;;;;;;;3.70;3.40;;;11.60;99.90;;;;;;5113856;28;20254;-59
2022/05/31 02:16:15;;;;;;;3.70;3.30;;;11.60;99.90;;;;;;5112426;28;20622;-60
2022/05/31 02:21:25;;;;;;;3.80;3.50;;;11.40;99.90;;;;;;5114161;28;20250;-60
2022/05/31 02:23:51;;;;;;;4.60;4.05;;;11.40;99.90;;;;;;5112357;28;20211;-59
2022/05/31 02:26:17;;;;;;;4.47;3.88;;;11.40;99.90;;;;;;5112387;28;20176;-59
2022/05/31 02:28:43;;;;;;;4.30;3.90;;;11.40;99.90;;;;;;5112845;28;20177;-60
2022/05/31 02:31:08;;;;;;;4.20;3.80;;;11.40;99.90;;;;;;5113890;28;20182;-59
2022/05/31 02:33:34;;;;;;;4.80;4.15;;;11.40;99.90;;;;;;5112740;28;20225;-60
2022/05/31 02:35:59;;;;;;;3.60;3.30;;;11.40;99.90;;;;;;5112643;28;20264;-60
2022/05/31 02:38:25;;;;;;;5.60;4.13;;;11.30;99.90;;;;;;5113597;28;20176;-60
2022/05/31 02:40:51;;;;;;;5.25;3.78;;;11.30;99.90;;;;;;5113473;28;20176;-59
2022/05/31 02:43:16;;;;;;;4.38;3.83;;;11.30;99.90;;;;;;5112445;28;20181;-59
2022/05/31 02:45:42;;;;;;;3.85;3.55;;;11.20;99.90;;;;;;5114167;28;20180;-59
2022/05/31 02:48:08;;;;;;;4.88;3.90;;;11.20;99.90;;;;;;5113610;28;20177;-59
2022/05/31 02:50:39;;;;;;;3.92;3.53;;;11.20;99.90;;;;;;5113545;28;20180;-60
2022/05/31 02:53:05;;;;;;;4.03;3.65;;;11.20;99.90;;;;;;5113384;28;20216;-61
2022/05/31 02:55:30;;;;;;;4.68;3.83;;;11.10;99.90;;;;;;5112175;28;20174;-59
2022/05/31 02:57:56;;;;;;;4.18;3.67;;;11.20;99.90;;;;;;5112380;28;20170;-59
2022/05/31 03:00:22;;;;;;;4.90;3.60;;;11.30;99.90;;;;;;5113392;28;20173;-60
2022/05/31 03:02:47;;;;;;;4.47;3.40;;;11.30;99.90;;;;;;5113504;28;20181;-59
2022/05/31 03:05:13;;;;;;;3.65;3.35;;;11.20;99.90;;;;;;5113199;28;20200;-59
2022/05/31 03:07:38;;;;;;;4.32;3.22;;;11.30;99.90;;;;;;5113139;28;20193;-59
2022/05/31 03:10:05;;;;;;;4.63;3.72;;;11.20;99.90;;;;;;5112051;28;20169;-60
2022/05/31 03:12:32;;;;;;;3.97;3.58;;;11.20;99.90;;;;;;5114027;28;20703;-59
2022/05/31 03:15:07;;;;;;;4.40;3.55;;;11.30;99.90;;;;;;5116033;28;20181;-59
2022/05/31 03:17:43;;;;;;;4.32;3.92;;;11.30;99.90;;;;;;5115935;28;20168;-61
2022/05/31 03:20:15;;;;;;;3.90;3.50;;;11.40;99.90;;;;;;5115973;28;20210;-62
2022/05/31 03:22:57;;;;;;;4.95;4.07;;;11.30;99.90;;;;;;5117179;28;20169;-60
2022/05/31 03:25:26;;;;;;;5.68;3.60;;;11.40;99.90;;;;;;5115689;28;20176;-60
2022/05/31 03:27:57;;;;;;;4.15;3.75;;;11.30;99.90;;;;;;5117036;28;20252;-60
2022/05/31 03:30:22;;;;;;;4.95;4.32;;;11.30;99.90;;;;;;5117022;28;20210;-60
2022/05/31 03:32:49;;;;;;;3.92;3.53;;;11.20;99.90;;;;;;5115595;28;20200;-60
2022/05/31 03:35:15;;;;;;;3.97;3.38;;;11.20;99.90;;;;;;5115712;28;20181;-60
2022/05/31 03:37:41;;;;;;;3.78;3.38;;;11.30;99.90;;;;;;5116975;28;20170;-60
2022/05/31 03:40:07;;;;;;;4.68;3.22;;;11.30;99.90;;;;;;5115413;28;20661;-60
2022/05/31 03:42:34;;;;;;;4.30;3.70;;;11.20;99.90;;;;;;5116551;28;20273;-60
2022/05/31 03:44:59;;;;;;;3.88;3.47;;;11.20;99.90;;;;;;5116420;28;20618;-60
2022/05/31 03:47:25;;;;;;;4.13;3.35;;;11.20;99.90;;;;;;5116376;28;20306;-60
2022/05/31 03:49:51;;;;;;;3.40;3.10;;;11.30;99.90;;;;;;5116692;28;20534;-60
2022/05/31 03:52:17;;;;;;;4.00;3.60;;;11.30;99.90;;;;;;5115396;28;20260;-59
2022/05/31 03:54:43;;;;;;;3.97;3.38;;;11.30;99.90;;;;;;5115227;28;20685;-59
2022/05/31 03:57:17;;;;;;;3.97;3.33;;;11.40;99.90;;;;;;5115061;28;20221;-61
2022/05/31 03:59:43;;;;;;;4.68;3.63;;;11.40;99.90;;;;;;5116307;28;20165;-59
2022/05/31 04:02:09;;;;;;;4.38;3.53;;;11.40;99.90;;;;;;5115065;28;20173;-61
2022/05/31 04:04:36;;;;;;;4.00;3.60;;;11.40;99.90;;;;;;5116268;28;20185;-59
2022/05/31 04:07:03;;;;;;;3.70;3.40;;;11.40;99.90;;;;;;5116039;28;20574;-59
2022/05/31 04:09:29;;;;;;;4.88;3.95;;;11.30;99.90;;;;;;5114866;28;20630;-60
2022/05/31 04:11:57;;;;;;;3.80;3.25;;;11.30;99.90;;;;;;5116293;28;20176;-59
2022/05/31 04:14:22;;;;;;;3.70;3.40;;;11.40;99.90;;;;;;5114656;28;20201;-60
2022/05/31 04:16:48;;;;;;;5.57;3.72;;;11.50;99.90;;;;;;5114633;28;20235;-60
2022/05/31 04:19:14;;;;;;;3.95;3.47;;;11.50;99.90;;;;;;5116140;28;20173;-60
2022/05/31 04:21:39;;;;;;;3.85;3.55;;;11.50;99.90;;;;;;5114781;28;20181;-60
2022/05/31 04:24:08;;;;;;;3.55;3.25;;;11.50;99.90;;;;;;5115327;28;20181;-59
2022/05/31 04:26:47;;;;;;;4.63;3.58;;;11.60;99.90;;;;;;5114693;28;20201;-60
2022/05/31 04:29:13;;;;;;;3.78;3.22;;;11.60;99.90;;;;;;5115592;28;20226;-59
2022/05/31 04:31:39;;;;;;;4.60;3.58;;;11.60;99.90;;;;;;5115930;28;20630;-59
2022/05/31 04:34:05;;;;;;;3.97;3.45;;;11.60;99.90;;;;;;5115514;28;20204;-59
2022/05/31 04:36:31;;;;;;;3.85;3.42;;;11.60;99.90;;;;;;5115629;28;20203;-59
2022/05/31 04:38:59;;;;;;;4.38;3.20;;;11.50;99.90;;;;;;5115623;28;20178;-60
2022/05/31 04:41:27;;;;;;;4.32;3.65;;;11.50;99.90;;;;;;5115494;28;20170;-60
2022/05/31 04:43:55;;;;;;;3.70;3.28;;;11.60;99.90;;;;;;5115492;28;20173;-59
2022/05/31 04:46:23;;;;;;;5.03;3.63;;;11.60;99.90;;;;;;5115446;28;20192;-61
2022/05/31 04:48:49;;;;;;;5.57;4.05;;;11.60;99.90;;;;;;5114894;28;20180;-59
2022/05/31 04:51:15;;;;;;;4.03;3.58;;;11.70;99.90;;;;;;5114455;28;20170;-59
2022/05/31 04:53:42;;;;;;;6.20;3.70;;;11.70;99.90;;;;;;5114000;28;20204;-59
2022/05/31 04:56:10;;;;;;;4.07;3.60;;;11.70;99.90;;;;;;5115140;28;20182;-59
2022/05/31 04:58:36;;;;;;;4.93;3.83;;;11.80;99.90;;;;;;5115086;28;20615;-59
2022/05/31 05:01:06;;;;;;;5.82;3.63;;;11.80;99.90;;;;;;5115223;28;20197;-59
2022/05/31 05:03:33;;;;;;;4.15;3.70;;;11.80;99.90;;;;;;5114611;28;20171;-58
2022/05/31 05:06:07;;;;;;;5.85;3.95;;;11.90;99.90;;;;;;5115050;28;20201;-57
2022/05/31 05:08:35;;;;;;;3.58;3.28;;;11.90;99.90;;;;;;5114766;28;20657;-60
2022/05/31 05:11:02;;;;;;;4.03;3.63;;;12.00;99.90;;;;;;5114490;28;20630;-57
2022/05/31 05:13:29;;;;;;;4.10;2.90;;;12.00;99.90;;;;;;5114639;28;20266;-58
2022/05/31 05:15:55;;;;;;;3.92;3.33;;;12.00;99.90;;;;;;5114771;28;20676;-57
2022/05/31 05:18:22;;;;;;;3.60;3.28;;;12.10;99.90;;;;;;5114703;28;20189;-57
2022/05/31 05:20:48;;;;;;;3.30;3.00;;;12.10;99.90;;;;;;5114728;28;20691;-57
2022/05/31 05:23:14;;;;;;;5.13;3.58;;;12.30;99.90;;;;;;5114547;28;20177;-57
2022/05/31 05:25:40;;;;;;;3.85;3.35;;;12.30;99.90;;;;;;5096570;28;20173;-57
2022/05/31 05:30:51;;;;;;;3.83;3.53;;;12.40;99.90;;;;;;5114885;28;20176;-58
2022/05/31 05:33:17;;;;;;;4.63;3.35;;;12.60;99.90;;;;;;5096268;28;20205;-57
2022/05/31 05:35:43;;;;;;;4.28;3.50;;;12.60;99.90;;;;;;5113695;28;20173;-57
2022/05/31 05:38:09;;;;;;;5.22;3.60;;;12.70;99.90;;;;;;5114105;28;20177;-57
2022/05/31 05:40:35;;;;;;;5.07;3.38;;;12.60;99.90;;;;;;5114593;28;20238;-58
2022/05/31 05:43:01;;;;;;;4.07;3.33;;;12.70;99.90;;;;;;5114291;28;20178;-58
2022/05/31 05:45:27;;;;;;;4.40;3.35;;;12.90;99.90;;;;;;5114329;28;20184;-58
2022/05/31 05:47:52;;;;;;;4.38;3.10;;;13.00;99.90;;;;;;5114173;28;20208;-58
2022/05/31 05:50:18;;;;;;;4.15;3.28;;;13.00;99.90;;;;;;5114010;28;20203;-58
2022/05/31 05:52:49;;;;;;;2.97;2.67;;;13.10;99.90;;;;;;5114520;28;20181;-58
2022/05/31 05:55:15;;;;;;;4.38;3.30;;;13.20;99.90;;;;;;5114219;28;20226;-58
2022/05/31 05:57:41;;;;;;;3.40;3.10;;;13.20;99.90;;;;;;5112288;28;20512;-58
2022/05/31 06:00:07;;;;;;;3.97;3.55;;;13.10;99.90;;;;;;5113129;28;20172;-58
2022/05/31 06:02:34;;;;;;;4.20;3.60;;;13.30;99.90;;;;;;5111846;28;20169;-58
2022/05/31 06:05:17;;;;;;;3.33;2.92;;;13.20;99.90;;;;;;5111844;28;20252;-58
2022/05/31 06:07:48;;;;;;;3.75;3.15;;;13.20;99.90;;;;;;5113278;28;20173;-58
2022/05/31 06:10:20;;;;;;;3.28;2.97;;;13.20;99.90;;;;;;5113066;28;20169;-58
2022/05/31 06:12:54;;;;;;;3.25;2.95;;;13.30;99.90;;;;;;5112915;28;20256;-58
2022/05/31 06:15:25;;;;;;;4.57;3.58;;;13.30;99.90;;;;;;5111958;28;20176;-58
2022/05/31 06:17:55;;;;;;;4.53;3.50;;;13.30;99.90;;;;;;5113070;28;20201;-58
2022/05/31 06:20:22;;;;;;;3.85;3.28;;;13.30;99.90;;;;;;5112962;28;20502;-60
2022/05/31 06:22:48;;;;;;;5.10;3.35;;;13.30;99.90;;;;;;5112846;28;20177;-58
2022/05/31 06:25:15;;;;;;;3.40;3.10;;;13.30;99.90;;;;;;5112836;28;20638;-58
2022/05/31 06:27:41;;;;;;;4.55;3.80;;;13.50;99.90;;;;;;5112721;28;20168;-58
2022/05/31 06:30:07;;;;;;;4.40;3.35;;;13.50;99.90;;;;;;5112744;28;20247;-57
2022/05/31 06:32:33;;;;;;;4.18;3.50;;;13.60;99.90;;;;;;5112766;28;20177;-58
2022/05/31 06:34:59;;;;;;;4.70;3.53;;;13.50;99.90;;;;;;5112856;28;20188;-57
2022/05/31 06:37:28;;;;;;;3.83;3.45;;;13.60;99.90;;;;;;5112571;28;20174;-58
2022/05/31 06:39:54;;;;;;;4.97;3.53;;;13.80;99.90;;;;;;5111397;28;20166;-57
2022/05/31 06:42:20;;;;;;;4.50;3.63;;;14.10;99.90;;;;;;5112868;28;20180;-57
2022/05/31 06:44:45;;;;;;;4.43;3.58;;;14.20;99.90;;;;;;5112834;28;20185;-58
2022/05/31 06:47:12;;;;;;;3.80;3.42;;;14.20;99.90;;;;;;5112865;28;20170;-58
2022/05/31 06:49:38;;;;;;;4.57;3.10;;;14.30;99.90;;;;;;5116620;28;20538;-57
2022/05/31 06:57:38;;;;;;;4.78;3.28;;;15.00;99.90;;;;;;5116914;28;20588;-58
2022/05/31 07:00:06;;;;;;;4.72;3.67;;;15.10;99.90;;;;;;5116958;28;20211;-58
2022/05/31 07:02:33;;;;;;;4.38;3.35;;;15.60;99.90;;;;;;5116482;28;20260;-58
2022/05/31 07:04:59;;;;;;;3.80;3.45;;;15.80;99.90;;;;;;5116506;28;20260;-58
2022/05/31 07:07:24;;;;;;;4.97;4.05;;;16.00;99.90;;;;;;5114980;28;20275;-57
2022/05/31 07:09:51;;;;;;;3.70;3.30;;;16.00;99.90;;;;;;5116608;28;20181;-58
2022/05/31 07:12:16;;;;;;;3.50;3.05;;;16.20;99.90;;;;;;5116514;28;20641;-58
2022/05/31 07:14:42;;;;;;;3.35;2.67;;;16.10;99.90;;;;;;5115188;28;20288;-58
2022/05/31 07:17:09;;;;;;;3.80;3.25;;;16.30;99.90;;;;;;5115121;28;20530;-57
2022/05/31 07:19:35;;;;;;;4.00;3.20;;;16.20;99.90;;;;;;5116277;28;20169;-58
2022/05/31 07:22:01;;;;;;;5.32;3.30;;;16.10;99.90;;;;;;5114827;28;20256;-58
2022/05/31 07:24:27;;;;;;;4.75;2.88;;;16.10;99.90;;;;;;5116300;28;20212;-58
2022/05/31 07:26:53;;;;;;;3.55;2.88;;;16.10;99.90;;;;;;5116242;28;20207;-58
2022/05/31 07:29:20;;;;;;;3.20;2.63;;;15.80;99.90;;;;;;5115952;28;20196;-57
2022/05/31 07:31:45;;;;;;;4.10;2.90;;;15.70;99.90;;;;;;5115932;28;20181;-58
2022/05/31 07:34:12;;;;;;;2.97;2.40;;;15.90;99.90;;;;;;5115843;28;20561;-58
2022/05/31 07:36:39;;;;;;;3.55;2.80;;;16.10;99.90;;;;;;5115668;28;20692;-58
2022/05/31 07:39:08;;;;;;;3.28;2.80;;;16.00;99.90;;;;;;5116049;28;20170;-58
2022/05/31 07:41:34;;;;;;;3.83;3.10;;;16.10;99.90;;;;;;5115850;28;20297;-58
2022/05/31 07:44:00;;;;;;;4.10;2.58;;;16.50;99.90;;;;;;5115847;28;20189;-58
2022/05/31 07:46:27;;;;;;;3.42;3.05;;;16.80;99.90;;;;;;5115769;28;20181;-58
2022/05/31 07:48:53;;;;;;;3.83;2.55;;;17.00;99.90;;;;;;5115631;28;20234;-57
2022/05/31 07:51:19;;;;;;;3.95;2.78;;;17.30;99.90;;;;;;5115460;28;20181;-58
2022/05/31 07:53:44;;;;;;;3.30;2.50;;;17.40;99.90;;;;;;5115542;28;20252;-58
2022/05/31 07:56:10;;;;;;;3.58;2.70;;;17.50;99.90;;;;;;5114306;28;20177;-58
2022/05/31 07:58:38;;;;;;;2.75;2.55;;;17.70;99.90;;;;;;5115184;28;20177;-58
2022/05/31 08:01:07;;;;;;;4.50;2.80;;;17.70;99.90;;;;;;5113394;28;20639;-58
2022/05/31 08:03:34;;;;;;;4.05;2.80;;;17.90;99.90;;;;;;5115361;28;20170;-59
2022/05/31 08:06:04;;;;;;;3.35;2.38;;;18.10;99.90;;;;;;5115124;28;20192;-58
2022/05/31 08:08:30;;;;;;;3.42;2.72;;;18.10;99.90;;;;;;5115529;28;20256;-58
2022/05/31 08:10:56;;;;;;;3.10;2.72;;;18.30;99.90;;;;;;5115378;28;20193;-58
2022/05/31 08:13:22;;;;;;;5.45;2.72;;;18.30;99.90;;;;;;5115582;28;20197;-58
2022/05/31 08:15:47;;;;;;;4.15;3.00;;;18.50;99.90;;;;;;5115251;28;20668;-58
2022/05/31 08:18:13;;;;;;;5.00;3.08;;;18.60;99.90;;;;;;5115092;28;20214;-58
2022/05/31 08:20:39;;;;;;;3.78;2.72;;;18.50;99.90;;;;;;5115244;28;20173;-58
2022/05/31 08:23:06;;;;;;;5.47;2.80;;;18.40;99.90;;;;;;5115168;28;20534;-58
2022/05/31 08:25:33;;;;;;;4.15;2.50;;;18.50;99.90;;;;;;5113657;28;20671;-58
2022/05/31 08:28:01;;;;;;;4.60;2.40;;;18.60;99.90;;;;;;5113638;28;20177;-57
2022/05/31 08:30:27;;;;;;;3.55;2.30;;;18.80;99.90;;;;;;5114701;28;20699;-57
2022/05/31 08:32:53;;;;;;;2.65;2.10;;;18.90;99.90;;;;;;5113408;28;20174;-56
2022/05/31 08:35:18;;;;;;;2.90;2.17;;;18.90;99.90;;;;;;5114820;28;20188;-57
2022/05/31 08:37:44;;;;;;;2.55;2.17;;;19.00;99.90;;;;;;5114838;28;20542;-57
2022/05/31 08:40:11;;;;;;;2.83;2.08;;;19.20;99.70;;;;;;5113518;28;20169;-57
2022/05/31 08:42:39;;;;;;;3.75;1.80;;;19.40;99.90;;;;;;5114715;28;20594;-57
2022/05/31 08:45:15;;;;;;;3.08;2.25;;;19.50;99.90;;;;;;5114847;28;20176;-57
2022/05/31 08:47:58;;;;;;;2.35;1.90;;;19.50;99.30;;;;;;5114019;27;20565;-57
2022/05/31 08:53:39;;;;;;;3.47;1.70;;;19.40;99.40;;;;;;5113603;28;20243;-57
2022/05/31 08:59:24;;;;;;;1.65;1.30;;;19.90;98.00;;;;;;5114730;28;20253;-57
2022/05/31 09:01:54;;;;;;;2.63;1.60;;;20.00;98.00;;;;;;5114285;28;20179;-58
2022/05/31 09:04:27;;;;;;;2.47;1.42;;;20.10;96.50;;;;;;5114209;28;20173;-57
2022/05/31 09:06:58;;;;;;;1.75;1.30;;;20.00;97.20;;;;;;5114173;28;20189;-57
2022/05/31 09:09:28;;;;;;;1.25;1.15;;;20.20;96.20;;;;;;5114487;28;20196;-57
2022/05/31 09:12:03;;;;;;;2.53;1.13;;;20.20;96.40;;;;;;5113868;28;20260;-57
2022/05/31 09:15:04;;;;;;;1.77;1.10;;;20.40;97.90;;;;;;5113713;28;20232;-57
2022/05/31 09:17:38;;;;;;;2.05;1.33;;;20.50;96.80;;;;;;5113538;28;20254;-57
2022/05/31 09:20:27;;;;;;;1.70;1.30;;;20.50;95.40;;;;;;5114023;28;20268;-57
2022/05/31 09:22:54;;;;;;;1.55;1.33;;;20.50;95.50;;;;;;5107887;28;20718;-57
2022/05/31 09:25:20;;;;;;;2.35;1.30;;;20.40;96.40;;;;;;5113996;28;20645;-57
2022/05/31 09:27:50;;;;;;;1.77;1.48;;;20.40;94.60;;;;;;5112644;28;20255;-57
2022/05/31 09:30:25;;;;;;;1.80;1.40;;;20.60;94.60;;;;;;5112638;28;20177;-57
2022/05/31 09:33:14;;;;;;;1.42;1.00;;;20.70;95.20;;;;;;5113756;28;20161;-57
2022/05/31 09:36:09;;;;;;;1.35;1.10;;;20.40;94.80;;;;;;5113803;28;20626;-57
2022/05/31 09:39:05;;;;;;;1.50;1.40;;;20.50;95.30;;;;;;5113634;28;20186;-57
2022/05/31 09:41:44;;;;;;;1.23;1.00;;;21.10;94.20;;;;;;5113539;28;20177;-57
2022/05/31 09:44:17;;;;;;;2.03;1.70;;;20.90;94.50;;;;;;5113758;28;20611;-58
2022/05/31 09:46:51;;;;;;;2.20;1.30;;;20.70;92.20;;;;;;5113655;28;20276;-57
2022/05/31 09:49:23;;;;;;;2.30;1.27;;;21.00;93.30;;;;;;5113392;28;20164;-57
2022/05/31 09:51:49;;;;;;;1.40;1.30;;;21.40;95.00;;;;;;5113198;28;20377;-58
2022/05/31 09:57:06;;;;;;;2.53;1.15;;;21.40;93.50;;;;;;5113319;28;20176;-58
2022/05/31 09:59:35;;;;;;;0.90;0.88;;;21.40;93.60;;;;;;5114195;28;20176;-57
2022/05/31 10:02:26;;;;;;;1.35;1.00;;;21.00;93.50;;;;;;5114071;28;20225;-58
2022/05/31 10:05:23;;;;;;;1.40;1.20;;;20.40;93.00;;;;;;5114088;28;20395;-57
2022/05/31 10:07:49;;;;;;;0.90;0.90;;;19.80;93.80;;;;;;5114085;28;20181;-58
2022/05/31 10:10:27;;;;;;;2.55;1.05;;;20.00;95.10;;;;;;5112747;28;20169;-57
2022/05/31 10:13:04;;;;;;;0.80;0.60;;;20.40;92.40;;;;;;5113792;28;20203;-58
2022/05/31 10:15:40;;;;;;;1.38;1.15;;;20.80;93.40;;;;;;5114004;28;20204;-58
2022/05/31 10:18:09;;;;;;;1.20;1.05;;;21.10;92.40;;;;;;5114000;28;20225;-58
2022/05/31 10:20:35;;;;;;;1.27;1.10;;;21.10;91.70;;;;;;5113808;28;20558;-58
2022/05/31 10:23:12;;;;;;;1.35;1.00;;;20.70;91.50;;;;;;5113065;28;20169;-58
2022/05/31 10:25:45;;;;;;;1.80;1.15;;;20.60;92.30;;;;;;5114092;28;20192;-58
2022/05/31 10:28:19;;;;;;;1.77;1.67;;;20.90;91.30;;;;;;5113823;28;20268;-58
2022/05/31 10:31:03;;;;;;;1.83;1.25;;;20.90;91.10;;;;;;5112473;28;20316;-58
2022/05/31 10:33:29;;;;;;;1.20;1.00;;;20.80;89.50;;;;;;5113536;28;20204;-58
2022/05/31 10:36:07;;;;;;;1.23;1.00;;;20.50;93.30;;;;;;5113574;28;20177;-57
2022/05/31 10:38:33;;;;;;;0.98;0.90;;;20.40;93.10;;;;;;5112305;28;20177;-58
2022/05/31 10:41:06;;;;;;;1.10;1.00;;;20.10;92.90;;;;;;5112218;28;20181;-58
2022/05/31 10:43:37;;;;;;;1.77;1.00;;;20.70;93.60;;;;;;5113878;28;20656;-58
2022/05/31 10:46:08;;;;;;;1.00;0.90;;;21.30;92.50;;;;;;5113504;28;20165;-58
2022/05/31 10:48:41;;;;;;;1.05;0.82;;;21.30;88.90;;;;;;5114012;28;20669;-57
2022/05/31 10:51:13;;;;;;;1.55;0.70;;;21.10;90.30;;;;;;5113525;28;20618;-58
2022/05/31 10:54:00;;;;;;;0.73;0.70;;;20.80;90.30;;;;;;5113460;28;20197;-58
2022/05/31 10:56:46;;;;;;;2.03;1.42;;;20.50;91.30;;;;;;5113579;28;20706;-58
2022/05/31 10:59:18;;;;;;;1.17;1.08;;;20.20;93.00;;;;;;5113542;28;20166;-58
2022/05/31 11:02:07;;;;;;;1.10;0.95;;;19.90;92.80;;;;;;5113571;28;20193;-58
2022/05/31 11:04:54;;;;;;;0.80;0.80;;;19.80;92.40;;;;;;5107240;28;20260;-58
2022/05/31 11:13:52;;;;;;;1.17;0.70;;;20.50;91.70;;;;;;5113486;28;20226;-58
2022/05/31 11:16:36;;;;;;;0.75;0.73;;;20.50;90.30;;;;;;5113453;28;20683;-58
2022/05/31 11:19:25;;;;;;;1.65;0.88;;;20.60;90.20;;;;;;5113369;28;20170;-57
2022/05/31 11:22:18;;;;;;;0.88;0.80;;;20.60;90.40;;;;;;5113207;28;20173;-58
2022/05/31 11:24:53;;;;;;;1.17;0.90;;;21.20;91.70;;;;;;5113297;28;20638;-58
2022/05/31 11:27:53;;;;;;;0.75;0.75;;;21.50;91.10;;;;;;5113379;28;20251;-58
2022/05/31 11:30:32;;;;;;;0.95;0.88;;;21.40;88.60;;;;;;5113313;28;20223;-58
2022/05/31 11:33:09;;;;;;;0.90;0.68;;;21.20;87.50;;;;;;5113299;28;20252;-57
2022/05/31 11:35:58;;;;;;;0.95;0.68;;;20.90;86.80;;;;;;5116967;28;20181;-57
2022/05/31 11:38:41;;;;;;;0.90;0.60;;;21.00;89.20;;;;;;5116714;28;20215;-57
2022/05/31 11:41:17;;;;;;;0.98;0.90;;;20.80;88.30;;;;;;5116959;28;20172;-59
2022/05/31 11:44:08;;;;;;;2.15;1.02;;;21.00;87.60;;;;;;5116780;28;20180;-57
2022/05/31 11:46:43;;;;;;;0.80;0.60;;;20.80;84.60;;;;;;5116708;28;20169;-57
2022/05/31 11:49:30;;;;;;;1.10;0.95;;;20.50;87.30;;;;;;5116746;28;20173;-58
2022/05/31 11:51:56;;;;;;;0.80;0.80;;;20.50;91.30;;;;;;5115397;28;20174;-59
2022/05/31 11:54:36;;;;;;;1.00;0.90;;;20.40;90.10;;;;;;5116467;28;20295;-57
2022/05/31 11:57:27;;;;;;;0.82;0.80;;;20.80;90.10;;;;;;5116779;28;20248;-57
2022/05/31 12:00:05;;;;;;;1.20;0.85;;;20.80;89.50;;;;;;5116675;28;20173;-57
2022/05/31 12:02:57;;;;;;;0.77;0.73;;;20.90;89.90;;;;;;5116453;28;20169;-57
2022/05/31 12:05:33;;;;;;;1.00;0.73;;;20.90;87.80;;;;;;5116037;28;20594;-57
2022/05/31 12:08:09;;;;;;;0.98;0.88;;;20.60;90.60;;;;;;5116814;28;20177;-57
2022/05/31 12:10:55;;;;;;;0.82;0.80;;;20.30;87.70;;;;;;5116452;28;20169;-57
2022/05/31 12:13:22;;;;;;;2.55;0.98;;;20.50;91.30;;;;;;5116152;28;20727;-57
2022/05/31 12:15:52;;;;;;;0.80;0.80;;;20.20;91.60;;;;;;5116037;27;20629;-57
2022/05/31 12:18:29;;;;;;;1.15;1.00;;;20.20;91.50;;;;;;5116215;28;20518;-57
2022/05/31 12:21:09;;;;;;;1.30;0.90;;;20.20;91.30;;;;;;5116181;28;20169;-57
2022/05/31 12:23:55;;;;;;;0.80;0.80;;;20.00;90.90;;;;;;5115968;28;20181;-58
2022/05/31 12:26:42;;;;;;;1.10;1.00;;;20.00;92.50;;;;;;5115824;28;20630;-58
2022/05/31 12:29:23;;;;;;;0.70;0.70;;;19.90;91.40;;;;;;5115984;28;20574;-59
2022/05/31 12:31:49;;;;;;;0.98;0.88;;;19.90;90.80;;;;;;5115837;28;20229;-57
2022/05/31 12:34:21;;;;;;;0.65;0.65;;;19.70;90.40;;;;;;5115649;28;20299;-57
2022/05/31 12:36:55;;;;;;;1.27;0.90;;;19.70;92.40;;;;;;5115784;28;20176;-57
2022/05/31 12:39:24;;;;;;;0.70;0.70;;;19.60;91.40;;;;;;5115600;28;20184;-58
2022/05/31 12:41:51;;;;;;;0.90;0.90;;;19.70;91.80;;;;;;5115569;28;20172;-57
2022/05/31 12:44:36;;;;;;;0.82;0.82;;;19.60;92.00;;;;;;5115574;28;20180;-57
2022/05/31 12:47:27;;;;;;;1.30;1.00;;;19.60;92.00;;;;;;5113401;28;20214;-57
2022/05/31 12:49:54;;;;;;;1.13;0.98;;;20.00;90.70;;;;;;5115399;28;20633;-57
2022/05/31 12:55:36;;;;;;;1.00;0.90;;;20.90;88.10;;;;;;5115250;28;20554;-58
2022/05/31 12:58:30;;;;;;;1.15;1.02;;;21.40;89.50;;;;;;5115293;28;20165;-57
2022/05/31 13:00:56;;;;;;;0.80;0.70;;;21.50;88.30;;;;;;5115208;28;20192;-57
2022/05/31 13:03:32;;;;;;;0.95;0.90;;;21.70;88.30;;;;;;5115198;28;20182;-58
2022/05/31 13:06:12;;;;;;;0.75;0.75;;;21.60;87.80;;;;;;5114885;28;20181;-57
2022/05/31 13:08:57;;;;;;;1.30;0.90;;;21.40;88.30;;;;;;5113932;28;20231;-58
2022/05/31 13:20:41;;;;;;;0.90;0.60;;;20.60;90.70;;;;;;5114774;28;20661;-57
2022/05/31 13:23:06;;;;;;;0.70;0.70;;;20.80;89.50;;;;;;5107754;28;20634;-57
2022/05/31 13:25:41;;;;;;;0.70;0.70;;;21.00;89.40;;;;;;5115088;28;20252;-60
2022/05/31 13:28:07;;;;;;;0.90;0.88;;;21.40;88.00;;;;;;5113459;28;20172;-57
2022/05/31 13:30:41;;;;;;;0.80;0.77;;;21.40;87.90;;;;;;5113382;28;20626;-58
2022/05/31 13:33:17;;;;;;;0.70;0.70;;;21.30;87.40;;;;;;5114782;28;20249;-57
2022/05/31 13:35:43;;;;;;;1.33;1.00;;;21.20;87.40;;;;;;5114685;28;20180;-57
2022/05/31 13:38:26;;;;;;;1.10;0.90;;;21.30;84.30;;;;;;5114703;28;20166;-58
2022/05/31 13:40:56;;;;;;;0.90;0.80;;;21.50;86.80;;;;;;5114470;28;20645;-58
2022/05/31 13:43:29;;;;;;;1.52;0.90;;;21.50;85.20;;;;;;5114346;28;20730;-58
2022/05/31 13:46:03;;;;;;;0.80;0.80;;;21.90;85.10;;;;;;5113343;28;20698;-58
2022/05/31 13:48:39;;;;;;;1.23;0.70;;;21.90;83.90;;;;;;5114441;28;20187;-58
2022/05/31 13:51:10;;;;;;;1.48;0.63;;;21.60;83.90;;;;;;5114617;28;20180;-58